Time;durP1;ratioP1;P1;durP2;ratioP2;P2;SDS_P1;SDS_P2;PMS_P1;PMS_P2;Temp;Humidity;BMP_temperature;BMP_pressure;BME280_temperature;BME280_humidity;BME280_pressure;Samples;Min_cycle;Max_cycle;Signal;HPM_P1;HPM_P2
2023/04/15 00:00:51;;;;;;;8.67;5.03;;;6.80;99.90;;;;;;4210259;28;20455;-73
2023/04/15 00:02:53;;;;;;;7.80;4.67;;;6.90;99.90;;;;;;4188408;28;20458;-73
2023/04/15 00:04:54;;;;;;;7.93;5.53;;;6.80;99.90;;;;;;4208168;28;20546;-73
2023/04/15 00:06:56;;;;;;;9.57;6.10;;;6.80;99.90;;;;;;4208991;28;20620;-73
2023/04/15 00:08:58;;;;;;;9.40;6.40;;;6.80;99.90;;;;;;4207377;28;20563;-73
2023/04/15 00:11:02;;;;;;;12.17;7.33;;;6.80;99.90;;;;;;4188089;28;20455;-72
2023/04/15 00:13:04;;;;;;;10.33;6.40;;;6.80;99.90;;;;;;4202050;28;20462;-73
2023/04/15 00:15:09;;;;;;;10.87;6.77;;;6.80;99.90;;;;;;4206626;28;20823;-72
2023/04/15 00:17:10;;;;;;;9.97;6.47;;;6.80;99.90;;;;;;4212156;28;20871;-73
2023/04/15 00:19:12;;;;;;;12.23;6.20;;;6.80;99.90;;;;;;4191430;28;21155;-73
2023/04/15 00:21:16;;;;;;;9.20;6.23;;;6.70;99.90;;;;;;4209104;28;20442;-73
2023/04/15 00:23:17;;;;;;;8.47;5.97;;;6.70;99.90;;;;;;4209526;28;21272;-73
2023/04/15 00:25:19;;;;;;;9.10;5.87;;;6.70;99.90;;;;;;4210611;28;20469;-72
2023/04/15 00:27:21;;;;;;;9.57;6.17;;;6.70;99.90;;;;;;4202768;28;20454;-73
2023/04/15 00:29:23;;;;;;;9.70;5.97;;;6.70;99.90;;;;;;4205571;28;20956;-72
2023/04/15 00:31:27;;;;;;;10.57;6.57;;;6.70;99.90;;;;;;4209982;28;20458;-73
2023/04/15 00:33:29;;;;;;;10.43;6.27;;;6.70;99.90;;;;;;4205278;28;20458;-71
2023/04/15 00:35:31;;;;;;;9.07;5.70;;;6.60;99.90;;;;;;4208970;28;20578;-73
2023/04/15 00:37:34;;;;;;;8.77;5.83;;;6.60;99.90;;;;;;4209254;28;20481;-72
2023/04/15 00:39:35;;;;;;;9.13;5.47;;;6.60;99.90;;;;;;4213332;28;20481;-72
2023/04/15 00:41:38;;;;;;;11.17;6.03;;;6.60;99.90;;;;;;4212311;28;21032;-72
2023/04/15 00:43:40;;;;;;;8.70;5.23;;;6.60;99.90;;;;;;4209026;28;20986;-73
2023/04/15 00:45:42;;;;;;;8.30;5.20;;;6.60;99.90;;;;;;4206876;28;20562;-73
2023/04/15 00:47:46;;;;;;;10.27;5.53;;;6.60;99.90;;;;;;4212578;28;20894;-72
2023/04/15 00:49:48;;;;;;;8.50;5.57;;;6.60;99.90;;;;;;4208009;28;20451;-73
2023/04/15 00:51:50;;;;;;;9.20;5.43;;;6.50;99.90;;;;;;4212759;28;20471;-74
2023/04/15 00:53:55;;;;;;;9.87;5.67;;;6.60;99.90;;;;;;4206713;28;20460;-73
2023/04/15 00:55:56;;;;;;;9.67;5.40;;;6.50;99.90;;;;;;4209964;28;20579;-73
2023/04/15 00:57:58;;;;;;;8.57;5.40;;;6.60;99.90;;;;;;4213283;28;20857;-73
2023/04/15 01:00:01;;;;;;;7.60;5.20;;;6.50;99.90;;;;;;4210547;28;20586;-73
2023/04/15 01:02:03;;;;;;;10.00;6.40;;;6.50;99.90;;;;;;4205941;28;20496;-73
2023/04/15 01:04:08;;;;;;;10.13;5.83;;;6.50;99.90;;;;;;4208982;28;20469;-73
2023/04/15 01:06:11;;;;;;;8.63;5.70;;;6.50;99.90;;;;;;4212286;28;20446;-73
2023/04/15 01:08:13;;;;;;;11.30;5.90;;;6.50;99.90;;;;;;4208539;28;20539;-72
2023/04/15 01:10:15;;;;;;;8.43;5.17;;;6.50;99.90;;;;;;4212082;28;20479;-73
2023/04/15 01:12:18;;;;;;;8.90;5.70;;;6.50;99.90;;;;;;4214030;28;20459;-73
2023/04/15 01:14:20;;;;;;;9.97;5.50;;;6.50;99.90;;;;;;4210076;28;20476;-73
2023/04/15 01:16:22;;;;;;;9.87;6.00;;;6.50;99.90;;;;;;4208167;28;20473;-73
2023/04/15 01:18:24;;;;;;;10.57;6.13;;;6.50;99.90;;;;;;4206369;28;20569;-72
2023/04/15 01:20:28;;;;;;;9.50;6.20;;;6.50;99.90;;;;;;4208822;28;20577;-73
2023/04/15 01:22:32;;;;;;;9.93;5.87;;;6.50;99.90;;;;;;4212162;28;20536;-73
2023/04/15 01:24:35;;;;;;;9.73;6.10;;;6.50;99.90;;;;;;4207668;28;20474;-73
2023/04/15 01:26:40;;;;;;;11.77;6.17;;;6.50;99.90;;;;;;4208511;28;20475;-73
2023/04/15 01:28:42;;;;;;;10.90;6.37;;;6.50;99.90;;;;;;4209608;28;20505;-73
2023/04/15 01:30:44;;;;;;;9.73;6.23;;;6.50;99.90;;;;;;4206099;28;20474;-73
2023/04/15 01:32:46;;;;;;;10.73;6.50;;;6.50;99.90;;;;;;4207175;28;20470;-72
2023/04/15 01:34:48;;;;;;;9.67;5.90;;;6.50;99.90;;;;;;4205386;28;21172;-73
2023/04/15 01:36:50;;;;;;;9.83;5.77;;;6.50;99.90;;;;;;4208054;28;20511;-73
2023/04/15 01:38:52;;;;;;;10.17;6.33;;;6.50;99.90;;;;;;4208413;28;20504;-73
2023/04/15 01:40:53;;;;;;;11.13;6.30;;;6.40;99.90;;;;;;4212753;28;20580;-73
2023/04/15 01:42:57;;;;;;;10.40;5.60;;;6.50;99.90;;;;;;4206850;28;20492;-73
2023/04/15 01:44:59;;;;;;;10.90;6.47;;;6.40;99.90;;;;;;4203953;28;20466;-73
2023/04/15 01:47:01;;;;;;;11.23;6.13;;;6.50;99.90;;;;;;4212390;28;20940;-73
2023/04/15 01:49:02;;;;;;;10.80;6.43;;;6.40;99.90;;;;;;4212141;28;20616;-72
2023/04/15 01:51:04;;;;;;;10.63;6.30;;;6.40;99.90;;;;;;4209816;28;20511;-73
2023/04/15 01:53:07;;;;;;;10.00;6.10;;;6.40;99.90;;;;;;4203403;28;20560;-72
2023/04/15 01:55:10;;;;;;;10.83;6.50;;;6.50;99.90;;;;;;4205227;28;20588;-72
2023/04/15 01:57:12;;;;;;;11.13;6.40;;;6.40;99.90;;;;;;4211644;28;20461;-73
2023/04/15 01:59:15;;;;;;;12.10;7.07;;;6.40;99.90;;;;;;4205528;28;20481;-73
2023/04/15 02:01:18;;;;;;;12.27;6.60;;;6.40;99.90;;;;;;4209128;28;20547;-72
2023/04/15 02:03:20;;;;;;;11.37;6.47;;;6.40;99.90;;;;;;4210397;28;20478;-73
2023/04/15 02:05:22;;;;;;;11.10;6.13;;;6.40;99.90;;;;;;4210119;28;20453;-72
2023/04/15 02:07:24;;;;;;;13.13;6.77;;;6.40;99.90;;;;;;4209398;28;20884;-72
2023/04/15 02:09:26;;;;;;;11.47;6.40;;;6.40;99.90;;;;;;4210142;28;20473;-73
2023/04/15 02:11:27;;;;;;;9.27;5.73;;;6.40;99.90;;;;;;4206085;28;20480;-72
2023/04/15 02:13:29;;;;;;;11.40;6.43;;;6.40;99.90;;;;;;4207983;28;20963;-72
2023/04/15 02:15:33;;;;;;;12.00;6.03;;;7.10;99.90;;;;;;4211290;28;20465;-72
2023/04/15 02:17:35;;;;;;;10.67;5.97;;;6.30;99.90;;;;;;4209445;28;20569;-72
2023/04/15 02:19:38;;;;;;;9.73;5.70;;;6.30;99.90;;;;;;4204914;28;20503;-72
2023/04/15 02:21:40;;;;;;;10.80;5.97;;;6.30;99.90;;;;;;4210310;28;20499;-72
2023/04/15 02:23:42;;;;;;;10.07;5.50;;;6.30;99.90;;;;;;4212090;28;20465;-72
2023/04/15 02:25:44;;;;;;;9.13;5.20;;;6.30;99.90;;;;;;4193121;28;20455;-71
2023/04/15 02:27:46;;;;;;;10.30;5.67;;;6.30;99.90;;;;;;4207561;28;20576;-72
2023/04/15 02:29:49;;;;;;;9.37;5.43;;;6.30;99.90;;;;;;4206919;28;20483;-72
2023/04/15 02:31:53;;;;;;;9.67;5.10;;;6.20;99.90;;;;;;4212129;28;20825;-72
2023/04/15 02:33:55;;;;;;;8.87;5.13;;;6.30;99.90;;;;;;4209510;28;20465;-72
2023/04/15 02:35:58;;;;;;;10.47;5.90;;;6.30;99.90;;;;;;4210903;28;20458;-72
2023/04/15 02:37:59;;;;;;;11.17;5.80;;;6.30;99.90;;;;;;4191942;28;20527;-72
2023/04/15 02:40:01;;;;;;;10.83;5.93;;;6.30;99.90;;;;;;4210070;28;21024;-71
2023/04/15 02:42:04;;;;;;;10.30;6.03;;;6.20;99.90;;;;;;4192926;28;20446;-72
2023/04/15 02:44:08;;;;;;;9.90;5.17;;;6.20;99.90;;;;;;4205380;28;20963;-72
2023/04/15 02:46:13;;;;;;;10.03;5.80;;;6.20;99.90;;;;;;4205539;28;20462;-72
2023/04/15 02:48:18;;;;;;;9.97;5.53;;;6.20;99.90;;;;;;4210169;28;20473;-72
2023/04/15 02:50:22;;;;;;;11.90;5.20;;;6.20;99.90;;;;;;4210206;28;20990;-71
2023/04/15 02:52:24;;;;;;;7.80;4.73;;;6.20;99.90;;;;;;4207250;28;20504;-72
2023/04/15 02:54:27;;;;;;;8.37;4.93;;;6.20;99.90;;;;;;4191596;28;20455;-72
2023/04/15 02:56:30;;;;;;;9.73;5.67;;;6.20;99.90;;;;;;4206924;28;20465;-72
2023/04/15 02:58:33;;;;;;;10.47;5.70;;;6.20;99.90;;;;;;4211801;28;20923;-72
2023/04/15 03:00:35;;;;;;;12.87;6.57;;;6.20;99.90;;;;;;4205690;28;20492;-73
2023/04/15 03:02:38;;;;;;;10.30;5.53;;;6.20;99.90;;;;;;4207352;28;20506;-73
2023/04/15 03:04:41;;;;;;;10.43;6.23;;;6.20;99.90;;;;;;4208241;28;20466;-73
2023/04/15 03:06:43;;;;;;;11.00;5.67;;;6.20;99.90;;;;;;4208807;28;20462;-72
2023/04/15 03:08:45;;;;;;;12.13;6.63;;;6.20;99.90;;;;;;4206639;28;20496;-73
2023/04/15 03:10:47;;;;;;;12.13;5.87;;;6.20;99.90;;;;;;4207346;28;20461;-73
2023/04/15 03:12:49;;;;;;;11.13;6.50;;;6.20;99.90;;;;;;4211022;28;20982;-73
2023/04/15 03:14:51;;;;;;;12.30;6.60;;;6.20;99.90;;;;;;4209892;28;20484;-72
2023/04/15 03:16:53;;;;;;;14.97;6.47;;;6.20;99.90;;;;;;4188210;28;20559;-73
2023/04/15 03:18:55;;;;;;;16.70;7.67;;;6.20;99.90;;;;;;4202294;28;20999;-72
2023/04/15 03:20:58;;;;;;;13.73;7.33;;;6.20;99.90;;;;;;4204509;28;20489;-73
2023/04/15 03:23:00;;;;;;;14.00;7.60;;;6.30;99.90;;;;;;4208903;28;20970;-73
2023/04/15 03:25:04;;;;;;;17.93;9.23;;;6.10;99.90;;;;;;4208303;28;21011;-72
2023/04/15 03:27:06;;;;;;;16.70;8.53;;;6.20;99.90;;;;;;4194739;28;20579;-74
2023/04/15 03:29:08;;;;;;;16.23;8.30;;;6.20;99.90;;;;;;4208463;28;20482;-73
2023/04/15 03:31:10;;;;;;;15.83;8.17;;;6.20;99.90;;;;;;4192970;28;21027;-73
2023/04/15 03:33:12;;;;;;;15.60;8.53;;;6.20;99.90;;;;;;4209708;28;20541;-73
2023/04/15 03:35:14;;;;;;;16.47;8.37;;;6.30;99.90;;;;;;4204721;28;20485;-73
2023/04/15 03:37:18;;;;;;;17.07;8.13;;;6.20;99.90;;;;;;4208819;28;20872;-73
2023/04/15 03:39:20;;;;;;;14.57;7.87;;;6.20;99.90;;;;;;4208748;28;20466;-73
2023/04/15 03:41:22;;;;;;;14.50;8.00;;;6.20;99.90;;;;;;4206870;28;20478;-73
2023/04/15 03:43:24;;;;;;;18.43;7.97;;;6.20;99.90;;;;;;4207582;28;20465;-73
2023/04/15 03:45:26;;;;;;;14.77;8.10;;;6.30;99.90;;;;;;4210833;28;20457;-73
2023/04/15 03:47:28;;;;;;;14.40;7.40;;;6.20;99.90;;;;;;4209277;28;20898;-73
2023/04/15 03:49:30;;;;;;;16.27;8.00;;;6.20;99.90;;;;;;4208372;28;20849;-73
2023/04/15 03:51:36;;;;;;;14.87;7.23;;;6.20;99.90;;;;;;4205823;28;20478;-73
2023/04/15 03:53:39;;;;;;;13.20;6.87;;;6.20;99.90;;;;;;4206852;28;20994;-73
2023/04/15 03:55:41;;;;;;;12.47;6.90;;;6.30;99.90;;;;;;4205143;28;20830;-74
2023/04/15 03:57:43;;;;;;;13.30;6.77;;;6.20;99.90;;;;;;4202189;28;20478;-74
2023/04/15 03:59:45;;;;;;;12.87;6.33;;;6.20;99.90;;;;;;4212874;28;20458;-74
2023/04/15 04:01:47;;;;;;;12.67;6.60;;;6.20;99.90;;;;;;4210551;28;20461;-73
2023/04/15 04:03:49;;;;;;;12.20;6.27;;;6.20;99.90;;;;;;4206622;28;20454;-74
2023/04/15 04:05:51;;;;;;;10.80;6.00;;;6.30;99.90;;;;;;4208257;28;20552;-73
2023/04/15 04:07:53;;;;;;;14.33;7.23;;;6.20;99.90;;;;;;4203563;28;20513;-74
2023/04/15 04:09:57;;;;;;;13.33;6.87;;;6.20;99.90;;;;;;4204187;28;20463;-73
2023/04/15 04:11:59;;;;;;;14.90;6.63;;;6.30;99.90;;;;;;4190501;28;20500;-74
2023/04/15 04:14:00;;;;;;;12.20;6.30;;;6.20;99.90;;;;;;4190038;28;20447;-75
2023/04/15 04:16:03;;;;;;;11.03;6.27;;;6.20;99.90;;;;;;4191131;28;20545;-74
2023/04/15 04:18:05;;;;;;;12.17;6.67;;;6.20;99.90;;;;;;4209101;28;20457;-73
2023/04/15 04:20:08;;;;;;;12.43;6.33;;;6.20;99.90;;;;;;4209411;28;20524;-73
2023/04/15 04:22:10;;;;;;;15.10;6.60;;;6.20;99.90;;;;;;4208297;28;20457;-74
2023/04/15 04:24:12;;;;;;;14.23;7.03;;;6.20;99.90;;;;;;4205693;28;20487;-74
2023/04/15 04:26:15;;;;;;;14.03;6.97;;;6.30;99.90;;;;;;4209002;28;20493;-73
2023/04/15 04:28:17;;;;;;;12.53;6.80;;;6.30;99.90;;;;;;4208860;28;20556;-74
2023/04/15 04:30:19;;;;;;;14.40;7.10;;;6.30;99.90;;;;;;4206614;28;20478;-74
2023/04/15 04:32:21;;;;;;;13.27;7.20;;;6.30;99.90;;;;;;4206196;28;20551;-74
2023/04/15 04:34:23;;;;;;;10.70;5.50;;;6.30;99.90;;;;;;4205277;28;20475;-75
2023/04/15 04:36:25;;;;;;;10.87;6.30;;;6.30;99.90;;;;;;4207419;28;20466;-75
2023/04/15 04:38:27;;;;;;;11.37;6.10;;;6.30;99.90;;;;;;4207838;28;20576;-74
2023/04/15 04:40:29;;;;;;;11.37;6.60;;;6.30;99.90;;;;;;4186143;28;20483;-75
2023/04/15 04:42:32;;;;;;;12.67;6.50;;;6.30;99.90;;;;;;4205215;28;20479;-74
2023/04/15 04:44:34;;;;;;;13.30;6.97;;;6.30;99.90;;;;;;4207328;28;20458;-73
2023/04/15 04:46:36;;;;;;;12.33;6.80;;;6.30;99.90;;;;;;4205673;28;21228;-73
2023/04/15 04:48:38;;;;;;;12.13;6.53;;;6.30;99.90;;;;;;4207224;28;20476;-74
2023/04/15 04:50:40;;;;;;;12.80;6.50;;;6.30;99.90;;;;;;4192706;28;20825;-75
2023/04/15 04:52:42;;;;;;;11.93;6.33;;;6.30;99.90;;;;;;4194631;28;21148;-74
2023/04/15 04:54:43;;;;;;;12.80;6.63;;;6.30;99.90;;;;;;4211999;28;20840;-75
2023/04/15 04:56:45;;;;;;;12.33;6.80;;;6.30;99.90;;;;;;4191751;28;20521;-74
2023/04/15 04:58:49;;;;;;;13.80;6.70;;;6.20;99.90;;;;;;4205373;28;20861;-75
2023/04/15 05:00:51;;;;;;;12.47;6.80;;;6.30;99.90;;;;;;4203847;28;20478;-75
2023/04/15 05:02:53;;;;;;;11.30;6.20;;;6.30;99.90;;;;;;4209280;28;20484;-73
2023/04/15 05:04:55;;;;;;;9.53;5.50;;;6.30;99.90;;;;;;4193383;28;20494;-74
2023/04/15 05:06:57;;;;;;;13.00;6.50;;;6.30;99.90;;;;;;4192094;28;21563;-75
2023/04/15 05:08:58;;;;;;;11.10;6.23;;;6.30;99.90;;;;;;4208279;28;20481;-73
2023/04/15 05:11:00;;;;;;;14.03;6.77;;;6.30;99.90;;;;;;4192005;28;20446;-75
2023/04/15 05:13:02;;;;;;;13.77;6.80;;;6.30;99.90;;;;;;4191726;28;20490;-74
2023/04/15 05:15:08;;;;;;;11.03;6.63;;;6.40;99.90;;;;;;4205063;28;20470;-75
2023/04/15 05:17:11;;;;;;;10.80;6.17;;;6.30;99.90;;;;;;4187471;28;20497;-74
2023/04/15 05:19:13;;;;;;;10.80;6.00;;;6.30;99.90;;;;;;4210520;28;20996;-74
2023/04/15 05:21:15;;;;;;;10.77;6.47;;;6.30;99.90;;;;;;4195496;28;20612;-74
2023/04/15 05:23:17;;;;;;;11.80;6.37;;;6.30;99.90;;;;;;4212962;28;20454;-75
2023/04/15 05:25:21;;;;;;;12.10;6.37;;;6.30;99.90;;;;;;4210116;28;20519;-75
2023/04/15 05:27:23;;;;;;;12.20;6.53;;;6.30;99.90;;;;;;4210824;28;20488;-74
2023/04/15 05:29:26;;;;;;;11.17;6.10;;;6.30;99.90;;;;;;4212962;28;20450;-75
2023/04/15 05:31:29;;;;;;;11.43;6.43;;;6.30;99.90;;;;;;4209861;28;20839;-75
2023/04/15 05:33:31;;;;;;;13.30;7.37;;;6.40;99.90;;;;;;4204005;28;21095;-75
2023/04/15 05:35:33;;;;;;;14.70;7.47;;;6.30;99.90;;;;;;4204296;28;20489;-74
2023/04/15 05:37:35;;;;;;;12.73;6.87;;;6.40;99.90;;;;;;4206133;28;20817;-75
2023/04/15 05:39:37;;;;;;;13.60;7.70;;;6.40;99.90;;;;;;4208291;28;20450;-73
2023/04/15 05:41:39;;;;;;;14.43;7.80;;;6.40;99.90;;;;;;4205498;28;20512;-74
2023/04/15 05:43:41;;;;;;;17.40;9.03;;;6.40;99.90;;;;;;4211232;28;20500;-75
2023/04/15 05:45:43;;;;;;;15.80;8.50;;;6.30;99.90;;;;;;4212962;28;20492;-75
2023/04/15 05:47:46;;;;;;;14.30;8.07;;;6.40;99.90;;;;;;4191044;28;20578;-74
2023/04/15 05:49:48;;;;;;;16.03;8.47;;;6.40;99.90;;;;;;4207933;28;20469;-76
2023/04/15 05:51:50;;;;;;;14.80;8.43;;;6.40;99.90;;;;;;4213574;28;20463;-74
2023/04/15 05:53:52;;;;;;;14.33;8.30;;;6.40;99.90;;;;;;4212047;28;20454;-74
2023/04/15 05:55:54;;;;;;;14.47;8.40;;;6.40;99.90;;;;;;4210698;28;20458;-74
2023/04/15 05:57:56;;;;;;;14.63;8.57;;;6.50;99.90;;;;;;4205884;28;20477;-75
2023/04/15 05:59:58;;;;;;;15.40;8.47;;;6.50;99.90;;;;;;4210049;28;20465;-75
2023/04/15 06:02:00;;;;;;;11.90;7.50;;;6.50;99.90;;;;;;4210495;28;20485;-75
2023/04/15 06:04:04;;;;;;;14.77;8.50;;;6.50;99.90;;;;;;4210016;28;20443;-75
2023/04/15 06:06:06;;;;;;;14.53;8.37;;;6.50;99.90;;;;;;4208875;28;20481;-74
2023/04/15 06:08:08;;;;;;;15.10;9.30;;;6.50;99.90;;;;;;4209214;28;20512;-74
2023/04/15 06:10:10;;;;;;;27.23;9.30;;;6.50;99.90;;;;;;4207251;28;20446;-75
2023/04/15 06:12:12;;;;;;;17.80;9.73;;;6.50;99.90;;;;;;4208977;28;20494;-75
2023/04/15 06:14:14;;;;;;;15.13;8.47;;;6.50;99.90;;;;;;4203053;28;20466;-75
2023/04/15 06:16:16;;;;;;;16.97;9.00;;;6.50;99.90;;;;;;4195272;28;20548;-74
2023/04/15 06:18:19;;;;;;;13.73;8.13;;;6.50;99.90;;;;;;4205755;28;20488;-74
2023/04/15 06:20:22;;;;;;;15.00;8.40;;;6.60;99.90;;;;;;4212231;28;20461;-75
2023/04/15 06:22:25;;;;;;;13.63;8.03;;;6.50;99.90;;;;;;4207807;28;21106;-75
2023/04/15 06:24:27;;;;;;;14.67;8.83;;;6.60;99.90;;;;;;4206945;28;20451;-75
2023/04/15 06:26:29;;;;;;;12.90;7.17;;;6.60;99.90;;;;;;4208390;28;20832;-74
2023/04/15 06:28:30;;;;;;;17.20;8.97;;;6.60;99.90;;;;;;4207862;28;20459;-73
2023/04/15 06:30:32;;;;;;;16.77;8.60;;;6.60;99.90;;;;;;4209111;28;20489;-74
2023/04/15 06:32:34;;;;;;;16.50;9.53;;;6.60;99.90;;;;;;4209933;28;20487;-74
2023/04/15 06:34:36;;;;;;;15.23;8.13;;;6.60;99.90;;;;;;4192164;28;20467;-74
2023/04/15 06:36:40;;;;;;;16.00;8.17;;;6.60;99.90;;;;;;4211679;28;20941;-75
2023/04/15 06:38:41;;;;;;;15.50;8.63;;;6.60;99.90;;;;;;4190078;28;20561;-74
2023/04/15 06:40:43;;;;;;;19.47;8.10;;;6.60;99.90;;;;;;4190312;28;20543;-75
2023/04/15 06:42:45;;;;;;;16.00;8.47;;;6.60;99.90;;;;;;4207078;28;20450;-75
2023/04/15 06:44:47;;;;;;;16.83;9.63;;;6.70;99.90;;;;;;4191682;28;21068;-75
2023/04/15 06:46:49;;;;;;;15.80;9.07;;;6.60;99.90;;;;;;4206635;28;20451;-75
2023/04/15 06:48:51;;;;;;;16.07;9.40;;;6.70;99.90;;;;;;4208719;28;21382;-75
2023/04/15 06:50:53;;;;;;;16.90;9.60;;;6.70;99.90;;;;;;4208728;28;20516;-73
2023/04/15 06:52:57;;;;;;;15.23;8.43;;;6.70;99.90;;;;;;4205631;28;20467;-74
2023/04/15 06:54:59;;;;;;;18.07;9.37;;;6.70;99.90;;;;;;4209611;28;20939;-75
2023/04/15 06:57:01;;;;;;;15.90;9.20;;;6.70;99.90;;;;;;4212090;28;20449;-74
2023/04/15 06:59:03;;;;;;;16.57;9.23;;;6.70;99.90;;;;;;4192540;28;20539;-74
2023/04/15 07:01:05;;;;;;;16.40;8.83;;;6.70;99.90;;;;;;4209714;28;20627;-74
2023/04/15 07:03:09;;;;;;;16.53;9.17;;;6.70;99.90;;;;;;4191945;28;20834;-74
2023/04/15 07:05:11;;;;;;;17.73;9.43;;;6.80;99.90;;;;;;4209214;28;20456;-74
2023/04/15 07:07:14;;;;;;;15.53;9.23;;;6.80;99.90;;;;;;4209224;28;20557;-74
2023/04/15 07:09:17;;;;;;;17.57;9.33;;;6.80;99.90;;;;;;4194195;28;20466;-74
2023/04/15 07:11:20;;;;;;;15.27;9.10;;;6.80;99.90;;;;;;4209987;28;20501;-74
2023/04/15 07:13:21;;;;;;;17.07;9.20;;;6.80;99.90;;;;;;4207697;28;20454;-75
2023/04/15 07:15:23;;;;;;;16.73;9.50;;;6.80;99.90;;;;;;4205066;28;20447;-78
2023/04/15 07:17:26;;;;;;;15.33;8.60;;;6.80;99.90;;;;;;4206719;28;21158;-75
2023/04/15 07:19:27;;;;;;;13.47;7.70;;;6.90;99.90;;;;;;4208632;28;20964;-75
2023/04/15 07:21:29;;;;;;;14.57;7.47;;;6.90;99.90;;;;;;4206571;28;20504;-74
2023/04/15 07:23:31;;;;;;;14.17;7.40;;;6.90;99.90;;;;;;4190558;28;20460;-74
2023/04/15 07:25:35;;;;;;;13.20;7.57;;;6.90;99.90;;;;;;4207746;28;20470;-74
2023/04/15 07:27:37;;;;;;;14.90;7.10;;;6.90;99.90;;;;;;4208498;28;20590;-73
2023/04/15 07:29:38;;;;;;;14.10;7.43;;;6.90;99.90;;;;;;4208880;28;20466;-74
2023/04/15 07:31:41;;;;;;;13.23;7.10;;;6.90;99.90;;;;;;4211596;28;20446;-74
2023/04/15 07:33:43;;;;;;;13.63;7.50;;;6.90;99.90;;;;;;4205798;28;20952;-74
2023/04/15 07:35:45;;;;;;;12.40;7.23;;;7.00;99.90;;;;;;4206611;28;20947;-73
2023/04/15 07:37:48;;;;;;;14.83;7.53;;;7.00;99.90;;;;;;4192597;28;20471;-74
2023/04/15 07:39:50;;;;;;;13.53;7.40;;;7.00;99.90;;;;;;4205110;28;20575;-75
2023/04/15 07:41:55;;;;;;;12.10;7.47;;;7.00;99.90;;;;;;4206209;28;20570;-73
2023/04/15 07:43:57;;;;;;;14.27;7.47;;;7.00;99.90;;;;;;4207372;28;21030;-75
2023/04/15 07:46:01;;;;;;;17.67;8.47;;;7.00;99.90;;;;;;4209560;28;20493;-74
2023/04/15 07:48:04;;;;;;;13.67;7.67;;;7.00;99.90;;;;;;4206961;28;20509;-74
2023/04/15 07:50:07;;;;;;;16.37;8.77;;;7.00;99.90;;;;;;4205569;28;20520;-73
2023/04/15 07:52:09;;;;;;;14.87;7.87;;;7.10;99.90;;;;;;4205425;28;20818;-74
2023/04/15 07:54:15;;;;;;;12.77;7.30;;;7.10;99.90;;;;;;4204320;28;20480;-73
2023/04/15 07:56:17;;;;;;;16.23;8.67;;;7.10;99.90;;;;;;4188617;28;20460;-74
2023/04/15 07:58:20;;;;;;;14.27;7.80;;;7.10;99.90;;;;;;4208458;28;20854;-73
2023/04/15 08:00:22;;;;;;;14.20;7.67;;;7.10;99.90;;;;;;4207626;28;20448;-73
2023/04/15 08:02:24;;;;;;;14.60;7.77;;;7.10;99.90;;;;;;4184968;28;21058;-73
2023/04/15 08:04:27;;;;;;;13.93;8.00;;;7.10;99.90;;;;;;4207588;28;20965;-74
2023/04/15 08:06:29;;;;;;;15.73;7.80;;;7.20;99.90;;;;;;4208963;28;20451;-74
2023/04/15 08:08:31;;;;;;;16.70;9.07;;;7.20;99.90;;;;;;4192432;28;20529;-73
2023/04/15 08:10:33;;;;;;;16.13;8.43;;;7.20;99.90;;;;;;4189938;28;21062;-73
2023/04/15 08:12:35;;;;;;;16.33;8.53;;;7.20;99.90;;;;;;4206741;28;20446;-74
2023/04/15 08:14:38;;;;;;;19.03;8.60;;;7.20;99.90;;;;;;4191494;28;21008;-74
2023/04/15 08:16:40;;;;;;;15.80;8.40;;;7.20;99.90;;;;;;4205828;28;20455;-82
2023/04/15 08:18:42;;;;;;;18.87;9.13;;;7.30;99.90;;;;;;4193894;28;20568;-76
2023/04/15 08:20:44;;;;;;;14.53;8.27;;;7.30;99.90;;;;;;4203916;28;20448;-74
2023/04/15 08:22:50;;;;;;;17.73;8.97;;;7.30;99.90;;;;;;4190187;28;20837;-74
2023/04/15 08:24:52;;;;;;;14.43;8.00;;;7.30;99.90;;;;;;4204609;28;20530;-74
2023/04/15 08:26:55;;;;;;;17.23;8.10;;;7.30;99.90;;;;;;4189206;28;20464;-74
2023/04/15 08:28:57;;;;;;;14.47;8.13;;;7.30;99.90;;;;;;4183881;28;20492;-74
2023/04/15 08:31:01;;;;;;;14.60;8.43;;;7.30;99.90;;;;;;4208163;28;20458;-74
2023/04/15 08:33:03;;;;;;;15.20;7.93;;;7.30;99.90;;;;;;4208876;28;20462;-74
2023/04/15 08:35:06;;;;;;;13.83;8.20;;;7.40;99.90;;;;;;4209245;28;20458;-74
2023/04/15 08:37:08;;;;;;;15.97;8.13;;;7.40;99.90;;;;;;4208943;28;20478;-74
2023/04/15 08:39:10;;;;;;;20.63;9.27;;;7.40;99.90;;;;;;4191332;28;20475;-74
2023/04/15 08:41:21;;;;;;;17.70;9.37;;;7.40;99.90;;;;;;4209582;28;20632;-74
2023/04/15 08:43:27;;;;;;;21.80;10.27;;;7.40;99.90;;;;;;4188372;28;20649;-74
2023/04/15 08:45:29;;;;;;;22.23;10.50;;;7.50;99.90;;;;;;4203461;28;20516;-74
2023/04/15 08:47:34;;;;;;;20.27;10.07;;;7.50;99.90;;;;;;4210080;28;20822;-74
2023/04/15 08:49:40;;;;;;;19.40;9.90;;;7.50;99.90;;;;;;4211135;28;20952;-74
2023/04/15 08:51:42;;;;;;;21.30;10.80;;;7.50;99.90;;;;;;4210308;28;20201;-74
2023/04/15 08:53:46;;;;;;;23.57;11.37;;;7.50;99.90;;;;;;4210845;28;20844;-74
2023/04/15 08:55:52;;;;;;;21.23;11.17;;;7.50;99.90;;;;;;4211025;28;20504;-74
2023/04/15 08:57:54;;;;;;;24.37;11.70;;;7.60;99.90;;;;;;4209151;28;20478;-74
2023/04/15 08:59:57;;;;;;;24.10;11.80;;;7.60;99.90;;;;;;4214334;28;20462;-75
2023/04/15 09:02:03;;;;;;;26.00;13.67;;;7.60;99.90;;;;;;4210572;28;20478;-76
2023/04/15 09:04:07;;;;;;;24.70;13.50;;;7.60;99.90;;;;;;4213762;28;20587;-78
2023/04/15 09:06:09;;;;;;;25.27;12.93;;;7.70;99.90;;;;;;4212803;28;20508;-76
2023/04/15 09:08:12;;;;;;;27.53;13.77;;;7.70;99.90;;;;;;4191973;28;20511;-75
2023/04/15 09:10:14;;;;;;;28.10;13.50;;;7.70;99.90;;;;;;4209636;28;20450;-74
2023/04/15 09:12:16;;;;;;;26.43;13.50;;;7.70;99.90;;;;;;4206681;28;20501;-75
2023/04/15 09:14:18;;;;;;;30.57;14.57;;;7.80;99.90;;;;;;4211915;28;20472;-76
2023/04/15 09:16:20;;;;;;;33.03;15.23;;;7.70;99.90;;;;;;4189872;28;20226;-75
2023/04/15 09:18:29;;;;;;;30.93;15.07;;;8.10;99.90;;;;;;4211476;28;20459;-79
2023/04/15 09:20:40;;;;;;;27.73;14.20;;;7.80;99.90;;;;;;4213638;28;20459;-75
2023/04/15 09:22:48;;;;;;;38.57;16.70;;;7.90;99.90;;;;;;4211197;28;20873;-74
2023/04/15 09:24:50;;;;;;;33.50;15.07;;;7.90;99.90;;;;;;4214616;28;20207;-74
2023/04/15 09:26:54;;;;;;;29.37;14.77;;;7.90;99.90;;;;;;4211180;28;20443;-73
2023/04/15 09:29:05;;;;;;;32.93;15.40;;;8.00;99.90;;;;;;4212476;28;20704;-72
2023/04/15 09:31:08;;;;;;;38.03;16.37;;;8.00;99.90;;;;;;4193398;28;20440;-73
2023/04/15 09:33:14;;;;;;;35.13;15.90;;;8.00;99.90;;;;;;4212766;28;20444;-72
2023/04/15 09:35:16;;;;;;;30.73;15.43;;;8.10;99.90;;;;;;4211010;28;21232;-73
2023/04/15 09:37:36;;;;;;;30.70;15.00;;;8.10;99.90;;;;;;4190679;28;20214;-72
2023/04/15 09:39:49;;;;;;;32.37;15.40;;;8.10;99.90;;;;;;4215294;28;20462;-72
2023/04/15 09:42:07;;;;;;;33.47;15.47;;;8.10;99.90;;;;;;4211355;28;20210;-73
2023/04/15 09:44:25;;;;;;;36.93;16.27;;;8.20;99.90;;;;;;4193193;28;20233;-73
2023/04/15 09:46:43;;;;;;;35.50;16.60;;;8.20;99.90;;;;;;4207282;28;20205;-73
2023/04/15 09:48:45;;;;;;;31.00;15.57;;;8.30;99.90;;;;;;4197808;28;20256;-73
2023/04/15 09:50:48;;;;;;;38.47;16.90;;;8.30;99.90;;;;;;4210423;28;20563;-72
2023/04/15 09:52:52;;;;;;;34.07;16.67;;;8.30;99.90;;;;;;4192115;28;20245;-71
2023/04/15 09:54:57;;;;;;;33.30;16.77;;;8.30;99.90;;;;;;4217696;28;20674;-71
2023/04/15 09:57:05;;;;;;;35.43;16.67;;;8.40;99.90;;;;;;4208334;28;20236;-72
2023/04/15 09:59:08;;;;;;;36.77;17.93;;;8.40;99.90;;;;;;4213564;28;20300;-71
2023/04/15 10:01:10;;;;;;;33.13;15.87;;;8.40;99.90;;;;;;4212433;28;20225;-72
2023/04/15 10:03:13;;;;;;;36.73;17.57;;;8.40;99.90;;;;;;4210531;28;20229;-71
2023/04/15 10:05:16;;;;;;;38.73;18.20;;;8.50;99.90;;;;;;4209046;28;20934;-71
2023/04/15 10:07:21;;;;;;;40.73;19.47;;;8.40;99.90;;;;;;4212999;28;20287;-72
2023/04/15 10:09:24;;;;;;;41.87;20.47;;;8.50;99.90;;;;;;4197728;28;20208;-71
2023/04/15 10:11:29;;;;;;;43.80;21.60;;;8.50;99.90;;;;;;4217057;28;20210;-72
2023/04/15 10:13:35;;;;;;;42.50;20.17;;;8.50;99.90;;;;;;4212899;28;20662;-71
2023/04/15 10:15:37;;;;;;;35.90;18.43;;;8.60;99.90;;;;;;4208776;28;20576;-71
2023/04/15 10:17:43;;;;;;;38.67;18.60;;;8.60;99.90;;;;;;4196357;28;20300;-71
2023/04/15 10:19:46;;;;;;;43.23;20.90;;;8.60;99.90;;;;;;4210773;28;20209;-71
2023/04/15 10:21:49;;;;;;;39.33;19.83;;;8.60;99.90;;;;;;4192809;28;21002;-72
2023/04/15 10:23:51;;;;;;;43.70;20.77;;;8.70;99.90;;;;;;4211792;28;20558;-71
2023/04/15 10:25:55;;;;;;;41.60;20.60;;;8.70;99.90;;;;;;4206690;28;20206;-71
2023/04/15 10:27:58;;;;;;;43.50;21.50;;;8.70;99.90;;;;;;4206300;28;20311;-71
2023/04/15 10:30:01;;;;;;;47.47;23.17;;;8.80;99.90;;;;;;4208266;28;20213;-71
2023/04/15 10:32:04;;;;;;;44.87;21.33;;;8.80;99.90;;;;;;4213175;28;20210;-72
2023/04/15 10:34:06;;;;;;;41.87;20.13;;;8.80;99.90;;;;;;4194724;28;20217;-71
2023/04/15 10:36:08;;;;;;;39.97;20.00;;;8.80;99.90;;;;;;4206559;28;20247;-73
2023/04/15 10:38:33;;;;;;;46.63;21.87;;;8.80;99.90;;;;;;4202785;28;20221;-73